createdAt,value
2018-09-24T00:02:16.336Z,8.60
2018-09-24T00:08:20.597Z,8.60
2018-09-24T00:14:25.219Z,8.50
2018-09-24T00:20:28.792Z,8.50
2018-09-24T00:26:33.533Z,8.50
2018-09-24T00:32:37.469Z,8.40
2018-09-24T00:38:40.963Z,8.40
2018-09-24T00:44:44.513Z,8.40
2018-09-24T00:50:48.342Z,8.30
2018-09-24T00:56:51.738Z,8.30
2018-09-24T01:02:55.804Z,8.40
2018-09-24T01:08:59.310Z,8.40
2018-09-24T01:15:03.665Z,8.30
2018-09-24T01:21:07.465Z,8.30
2018-09-24T01:27:11.276Z,8.30
2018-09-24T01:33:16.166Z,8.20
2018-09-24T01:39:19.846Z,8.10
2018-09-24T01:45:23.743Z,8.00
2018-09-24T01:51:36.143Z,7.90
2018-09-24T01:57:39.902Z,7.80
2018-09-24T02:03:44.145Z,7.80
2018-09-24T02:09:48.100Z,7.80
2018-09-24T02:15:51.579Z,7.80
2018-09-24T02:22:00.622Z,8.00
2018-09-24T02:28:04.469Z,8.10
2018-09-24T02:34:09.629Z,8.10
2018-09-24T02:40:19.830Z,8.00
2018-09-24T02:46:30.720Z,8.00
2018-09-24T02:52:34.955Z,7.90
2018-09-24T02:58:38.382Z,7.90
2018-09-24T03:04:42.114Z,7.80
2018-09-24T03:10:47.262Z,7.80
2018-09-24T03:16:51.662Z,7.70
2018-09-24T03:22:55.554Z,7.70
2018-09-24T03:28:59.426Z,7.60
2018-09-24T03:35:03.097Z,7.60
2018-09-24T03:41:07.925Z,7.50
2018-09-24T03:47:11.577Z,7.40
2018-09-24T03:53:15.277Z,7.40
2018-09-24T03:59:20.300Z,7.30
2018-09-24T04:05:30.075Z,7.30
2018-09-24T04:11:39.128Z,7.20
2018-09-24T04:17:49.111Z,7.20
2018-09-24T04:23:58.132Z,7.10
2018-09-24T04:30:07.871Z,6.90
2018-09-24T04:36:17.183Z,6.90
2018-09-24T04:42:26.853Z,6.90
2018-09-24T04:48:36.305Z,6.90
2018-09-24T04:54:46.146Z,6.90
2018-09-24T05:00:55.296Z,6.90
2018-09-24T05:07:04.913Z,6.80
2018-09-24T05:13:14.249Z,6.60
2018-09-24T05:19:24.793Z,6.60
2018-09-24T05:25:34.101Z,6.60
2018-09-24T05:31:44.022Z,6.60
2018-09-24T05:38:04.695Z,6.60
2018-09-24T05:44:20.064Z,6.70
2018-09-24T05:50:29.320Z,6.80
2018-09-24T05:56:38.895Z,6.90
2018-09-24T06:02:48.023Z,6.90
2018-09-24T06:08:57.197Z,6.90
2018-09-24T06:15:06.876Z,7.00
2018-09-24T06:21:17.203Z,7.00
2018-09-24T06:27:26.632Z,7.20
2018-09-24T06:33:35.925Z,7.30
2018-09-24T06:39:45.149Z,7.40
2018-09-24T06:45:55.042Z,7.60
2018-09-24T06:52:04.485Z,7.80
2018-09-24T06:58:13.548Z,8.10
2018-09-24T07:04:29.753Z,8.30
2018-09-24T07:10:38.927Z,8.50
2018-09-24T07:16:48.413Z,8.80
2018-09-24T07:22:58.686Z,8.90
2018-09-24T07:29:08.230Z,9.10
2018-09-24T07:35:18.161Z,9.30
2018-09-24T07:41:27.441Z,9.50
2018-09-24T07:47:36.710Z,9.70
2018-09-24T07:53:47.020Z,9.90
2018-09-24T07:59:56.622Z,10.10
2018-09-24T08:06:06.411Z,10.30
2018-09-24T08:12:16.982Z,10.40
2018-09-24T08:18:26.446Z,10.60
2018-09-24T08:24:36.026Z,10.80
2018-09-24T08:30:45.477Z,10.90
2018-09-24T08:36:54.878Z,11.20
2018-09-24T08:43:04.310Z,11.50
2018-09-24T08:49:13.553Z,11.60
2018-09-24T08:55:22.574Z,11.70
2018-09-24T09:01:31.941Z,11.70
2018-09-24T09:07:41.122Z,11.80
2018-09-24T09:13:50.246Z,12.00
2018-09-24T09:19:59.814Z,12.10
2018-09-24T09:26:09.050Z,12.40
2018-09-24T09:32:19.345Z,12.50
2018-09-24T09:38:28.631Z,12.60
2018-09-24T09:44:37.527Z,12.90
2018-09-24T09:50:47.378Z,13.10
2018-09-24T09:56:57.061Z,13.10
2018-09-24T10:03:07.609Z,13.20
2018-09-24T10:09:17.023Z,13.40
2018-09-24T10:15:26.769Z,13.60
2018-09-24T10:21:35.929Z,13.90
2018-09-24T10:27:44.878Z,13.90
2018-09-24T10:33:53.998Z,13.90
2018-09-24T10:40:04.385Z,13.90
2018-09-24T10:46:13.803Z,14.00
2018-09-24T10:52:23.185Z,14.20
2018-09-24T10:58:33.260Z,14.20
2018-09-24T11:04:42.534Z,14.20
2018-09-24T11:10:52.397Z,14.40
2018-09-24T11:17:02.217Z,14.90
2018-09-24T11:23:11.676Z,15.30
2018-09-24T11:29:20.665Z,15.40
2018-09-24T11:35:29.931Z,15.30
2018-09-24T11:41:39.021Z,15.00
2018-09-24T11:47:48.893Z,14.70
2018-09-24T11:53:58.965Z,14.90
2018-09-24T12:00:08.211Z,15.10
2018-09-24T12:06:18.664Z,15.00
2018-09-24T12:12:28.923Z,15.00
2018-09-24T12:18:38.779Z,14.80
2018-09-24T12:24:48.517Z,14.70
2018-09-24T12:30:58.808Z,14.90
2018-09-24T12:37:08.639Z,15.00
2018-09-24T12:43:18.136Z,15.00
2018-09-24T12:49:27.364Z,15.40
2018-09-24T12:55:36.714Z,15.50
2018-09-24T13:01:46.811Z,15.50
2018-09-24T13:07:56.578Z,15.60
2018-09-24T13:14:06.445Z,15.80
2018-09-24T13:20:15.596Z,15.90
2018-09-24T13:26:24.677Z,15.90
2018-09-24T13:32:33.990Z,15.90
2018-09-24T13:38:43.409Z,16.20
2018-09-24T13:44:52.665Z,16.40
2018-09-24T13:51:02.044Z,16.60
2018-09-24T13:57:11.393Z,16.30
2018-09-24T14:03:20.867Z,15.90
2018-09-24T14:09:30.509Z,15.70
2018-09-24T14:15:39.929Z,15.70
2018-09-24T14:21:49.332Z,15.60
2018-09-24T14:27:58.721Z,15.40
2018-09-24T14:34:07.898Z,15.60
2018-09-24T14:40:17.369Z,16.50
2018-09-24T14:46:30.820Z,15.30
2018-09-24T14:52:40.775Z,15.00
2018-09-24T14:58:50.871Z,15.40
2018-09-24T15:05:00.263Z,15.90
2018-09-24T15:11:09.719Z,16.10
2018-09-24T15:17:19.676Z,15.80
2018-09-24T15:23:29.522Z,15.30
2018-09-24T15:29:39.323Z,15.10
2018-09-24T15:35:48.965Z,15.40
2018-09-24T15:41:58.794Z,15.20
2018-09-24T15:48:09.021Z,15.80
2018-09-24T15:54:19.095Z,15.90
2018-09-24T16:00:30.559Z,15.30
2018-09-24T16:06:41.395Z,14.80
2018-09-24T16:12:51.633Z,14.60
2018-09-24T16:19:01.360Z,14.30
2018-09-24T16:25:13.189Z,14.20
2018-09-24T16:31:23.081Z,14.00
2018-09-24T16:37:33.715Z,12.60
2018-09-24T16:43:43.113Z,12.10
2018-09-24T16:49:53.529Z,12.00
2018-09-24T16:56:09.426Z,12.00
2018-09-24T17:02:19.554Z,12.00
2018-09-24T17:08:29.083Z,12.00
2018-09-24T17:14:38.291Z,12.10
2018-09-24T17:20:47.456Z,12.10
2018-09-24T17:26:56.610Z,12.10
2018-09-24T17:33:06.588Z,12.00
2018-09-24T17:39:16.706Z,12.00
2018-09-24T17:45:27.365Z,12.00
2018-09-24T17:51:37.825Z,12.00
2018-09-24T17:57:48.518Z,12.00
2018-09-24T18:03:58.780Z,11.90
2018-09-24T18:10:09.579Z,11.90
2018-09-24T18:16:18.983Z,11.90
2018-09-24T18:22:28.558Z,12.00
2018-09-24T18:28:38.163Z,12.00
2018-09-24T18:34:47.479Z,11.90
2018-09-24T18:40:56.632Z,11.80
2018-09-24T18:47:13.052Z,11.60
2018-09-24T18:53:22.520Z,11.50
2018-09-24T18:59:32.337Z,11.40
2018-09-24T19:05:46.743Z,11.30
2018-09-24T19:11:56.459Z,11.20
2018-09-24T19:18:07.180Z,11.20
2018-09-24T19:24:17.097Z,11.10
2018-09-24T19:30:27.545Z,11.00
2018-09-24T19:36:36.974Z,10.90
2018-09-24T19:42:47.389Z,10.80
2018-09-24T19:48:58.397Z,10.70
2018-09-24T19:55:07.723Z,10.60
2018-09-24T20:01:17.695Z,10.50
2018-09-24T20:07:27.163Z,10.40
2018-09-24T20:13:36.841Z,10.40
2018-09-24T20:19:46.289Z,10.20
2018-09-24T20:25:55.773Z,10.10
2018-09-24T20:32:04.975Z,10.00
2018-09-24T20:38:15.408Z,9.90
2018-09-24T20:44:24.951Z,9.80
2018-09-24T20:50:34.468Z,9.70
2018-09-24T20:56:44.118Z,9.70
2018-09-24T21:02:53.428Z,9.50
2018-09-24T21:09:02.767Z,9.30
2018-09-24T21:15:12.513Z,9.30
2018-09-24T21:21:21.935Z,9.20
2018-09-24T21:27:32.249Z,9.00
2018-09-24T21:33:42.213Z,8.90
2018-09-24T21:39:51.633Z,8.80
2018-09-24T21:46:01.617Z,8.70
2018-09-24T21:52:10.623Z,8.60
2018-09-24T21:58:20.681Z,8.60
2018-09-24T22:04:30.135Z,8.40
2018-09-24T22:10:40.109Z,8.20
2018-09-24T22:16:49.506Z,8.20
2018-09-24T22:22:59.007Z,8.10
2018-09-24T22:29:08.021Z,8.00
2018-09-24T22:35:17.398Z,7.90
2018-09-24T22:41:26.662Z,7.90
2018-09-24T22:47:35.941Z,7.80
2018-09-24T22:53:45.688Z,7.80
2018-09-24T22:59:54.656Z,7.70
2018-09-24T23:06:03.770Z,7.70
2018-09-24T23:12:13.514Z,7.50
2018-09-24T23:18:22.874Z,7.40
2018-09-24T23:24:32.871Z,7.30
2018-09-24T23:30:43.283Z,7.30
2018-09-24T23:36:52.728Z,7.20
2018-09-24T23:43:02.345Z,7.10
2018-09-24T23:49:12.099Z,7.10
2018-09-24T23:55:22.107Z,7.10
